CheckWX is a tool to help pilots better visualize weather data.  It is not intended as a substitute for an official pre-flight weather briefing.

13:57:20 UTC

KAFW TAF
Fort Worth Alliance Airport
Fort Worth, Texas, USA
KAFW 281157Z 2812/2912 23012KT P6SM -SHRA VCTS SCT015 OVC100CB TEMPO 2812/2814 -TSRA BKN015CB FM281500 28014G24KT P6SM SCT150 BKN250 FM282300 25008KT P6SM SKC FM290600 36009KT P6SM FEW250

Mar-28@
12:00 UTC

Mar-28 @ 12:00 UTC

Mar-28@
15:00 UTC

Mar-28 @ 15:00 UTC

TAF KAFW 281157Z 2812/2912 23012KT P6SM -SHRA VCTS SCT015 OVC100CB
Wind
  • 230° at 12 KTS
Conditions
Light Showers, Rain, Area Thunderstorm
Cloud Levels
  • Scattered at 1,500' AGL
  • Overcast at 10,000' AGL

Mar-28@
12:00 UTC

Mar-28 @ 12:00 UTC

Mar-28@
14:00 UTC

Mar-28 @ 14:00 UTC

TEMPO 2812/2814 -TSRA BKN015CB

Temporary

Temporary Changes expected for less than half the time period

Conditions
Light Thunderstorm, Rain
Cloud Levels
  • Broken at 1,500' AGL

Mar-28@
15:00 UTC

Mar-28 @ 15:00 UTC

Mar-28@
23:00 UTC

Mar-28 @ 23:00 UTC

FM281500 28014G24KT P6SM SCT150 BKN250

From

From Standard forecast or significant change

Wind
  • 280° at 14 KTS
  • {Gusting to 24 KTS
Cloud Levels
  • Scattered at 15,000' AGL
  • Broken at 25,000' AGL

Mar-28@
23:00 UTC

Mar-28 @ 23:00 UTC

Mar-29@
06:00 UTC

Mar-29 @ 06:00 UTC

FM282300 25008KT P6SM SKC

From

From Standard forecast or significant change

Wind
  • 250° at 8 KTS
Cloud Levels
  • Clear skies

Mar-29@
06:00 UTC

Mar-29 @ 06:00 UTC

Mar-29@
12:00 UTC

Mar-29 @ 12:00 UTC

FM290600 36009KT P6SM FEW250

From

From Standard forecast or significant change

Wind
  • 360° at 9 KTS
Cloud Levels
  • Few at 25,000' AGL